sensor_id;sensor_type;location;lat;lon;timestamp;P1;durP1;ratioP1;P2;durP2;ratioP2
60372;SDS011;46216;52.220;5.134;2022-10-16T00:00:40;5.65;;;1.73;;
60372;SDS011;46216;52.220;5.134;2022-10-16T00:03:06;4.05;;;1.80;;
60372;SDS011;46216;52.220;5.134;2022-10-16T00:05:32;5.40;;;1.85;;
60372;SDS011;46216;52.220;5.134;2022-10-16T00:07:58;3.58;;;1.70;;
60372;SDS011;46216;52.220;5.134;2022-10-16T00:10:23;5.55;;;1.80;;
60372;SDS011;46216;52.220;5.134;2022-10-16T00:12:49;6.88;;;1.75;;
60372;SDS011;46216;52.220;5.134;2022-10-16T00:15:14;2.92;;;1.70;;
60372;SDS011;46216;52.220;5.134;2022-10-16T00:17:40;6.53;;;1.80;;
60372;SDS011;46216;52.220;5.134;2022-10-16T00:20:06;3.92;;;1.80;;
60372;SDS011;46216;52.220;5.134;2022-10-16T00:22:32;3.50;;;1.77;;
60372;SDS011;46216;52.220;5.134;2022-10-16T00:24:57;3.78;;;1.70;;
60372;SDS011;46216;52.220;5.134;2022-10-16T00:27:23;3.88;;;1.80;;
60372;SDS011;46216;52.220;5.134;2022-10-16T00:29:51;5.90;;;1.67;;
60372;SDS011;46216;52.220;5.134;2022-10-16T00:32:18;5.05;;;1.90;;
60372;SDS011;46216;52.220;5.134;2022-10-16T00:34:44;3.13;;;1.73;;
60372;SDS011;46216;52.220;5.134;2022-10-16T00:37:10;6.13;;;1.70;;
60372;SDS011;46216;52.220;5.134;2022-10-16T00:39:36;3.45;;;1.73;;
60372;SDS011;46216;52.220;5.134;2022-10-16T00:42:01;5.65;;;1.80;;
60372;SDS011;46216;52.220;5.134;2022-10-16T00:44:43;4.25;;;1.90;;
60372;SDS011;46216;52.220;5.134;2022-10-16T00:47:13;4.22;;;1.80;;
60372;SDS011;46216;52.220;5.134;2022-10-16T00:49:44;5.85;;;2.05;;
60372;SDS011;46216;52.220;5.134;2022-10-16T00:52:11;4.05;;;1.80;;
60372;SDS011;46216;52.220;5.134;2022-10-16T00:54:37;4.45;;;1.80;;
60372;SDS011;46216;52.220;5.134;2022-10-16T00:57:04;5.13;;;1.80;;
60372;SDS011;46216;52.220;5.134;2022-10-16T00:59:37;4.35;;;1.85;;
60372;SDS011;46216;52.220;5.134;2022-10-16T01:02:05;3.58;;;1.70;;
60372;SDS011;46216;52.220;5.134;2022-10-16T01:04:54;3.67;;;1.67;;
60372;SDS011;46216;52.220;5.134;2022-10-16T01:13:07;5.78;;;1.60;;
60372;SDS011;46216;52.220;5.134;2022-10-16T01:15:47;3.65;;;1.90;;
60372;SDS011;46216;52.220;5.134;2022-10-16T01:23:51;4.90;;;1.90;;
60372;SDS011;46216;52.220;5.134;2022-10-16T01:26:42;3.83;;;1.70;;
60372;SDS011;46216;52.220;5.134;2022-10-16T01:32:28;4.22;;;1.70;;
60372;SDS011;46216;52.220;5.134;2022-10-16T01:34:59;4.32;;;1.83;;
60372;SDS011;46216;52.220;5.134;2022-10-16T01:37:41;4.57;;;1.90;;
60372;SDS011;46216;52.220;5.134;2022-10-16T01:40:24;3.13;;;1.88;;
60372;SDS011;46216;52.220;5.134;2022-10-16T01:42:53;4.53;;;1.92;;
60372;SDS011;46216;52.220;5.134;2022-10-16T01:45:24;3.40;;;1.80;;
60372;SDS011;46216;52.220;5.134;2022-10-16T01:47:53;2.90;;;1.73;;
60372;SDS011;46216;52.220;5.134;2022-10-16T01:50:19;6.20;;;2.22;;
60372;SDS011;46216;52.220;5.134;2022-10-16T01:52:47;6.18;;;1.90;;
60372;SDS011;46216;52.220;5.134;2022-10-16T01:55:18;4.30;;;2.20;;
60372;SDS011;46216;52.220;5.134;2022-10-16T01:57:51;3.67;;;2.28;;
60372;SDS011;46216;52.220;5.134;2022-10-16T02:00:19;2.78;;;1.90;;
60372;SDS011;46216;52.220;5.134;2022-10-16T02:02:47;3.45;;;1.80;;
60372;SDS011;46216;52.220;5.134;2022-10-16T02:07:45;3.08;;;1.95;;
60372;SDS011;46216;52.220;5.134;2022-10-16T02:10:12;6.13;;;2.35;;
60372;SDS011;46216;52.220;5.134;2022-10-16T02:12:38;2.60;;;2.10;;
60372;SDS011;46216;52.220;5.134;2022-10-16T02:15:09;6.55;;;2.30;;
60372;SDS011;46216;52.220;5.134;2022-10-16T02:17:34;3.70;;;2.50;;
60372;SDS011;46216;52.220;5.134;2022-10-16T02:20:00;3.40;;;2.00;;
60372;SDS011;46216;52.220;5.134;2022-10-16T02:22:27;2.42;;;2.20;;
60372;SDS011;46216;52.220;5.134;2022-10-16T02:24:58;5.32;;;2.58;;
60372;SDS011;46216;52.220;5.134;2022-10-16T02:30:11;5.82;;;2.40;;
60372;SDS011;46216;52.220;5.134;2022-10-16T02:32:42;3.80;;;2.50;;
60372;SDS011;46216;52.220;5.134;2022-10-16T02:35:11;4.35;;;2.45;;
60372;SDS011;46216;52.220;5.134;2022-10-16T02:37:38;3.15;;;2.40;;
60372;SDS011;46216;52.220;5.134;2022-10-16T02:40:05;5.28;;;2.72;;
60372;SDS011;46216;52.220;5.134;2022-10-16T02:42:35;4.78;;;2.58;;
60372;SDS011;46216;52.220;5.134;2022-10-16T02:45:04;5.43;;;2.60;;
60372;SDS011;46216;52.220;5.134;2022-10-16T02:47:30;3.10;;;2.53;;
60372;SDS011;46216;52.220;5.134;2022-10-16T02:49:55;4.90;;;2.80;;
60372;SDS011;46216;52.220;5.134;2022-10-16T02:52:21;3.47;;;2.45;;
60372;SDS011;46216;52.220;5.134;2022-10-16T02:54:46;5.90;;;2.97;;
60372;SDS011;46216;52.220;5.134;2022-10-16T02:57:12;5.65;;;2.80;;
60372;SDS011;46216;52.220;5.134;2022-10-16T02:59:37;3.22;;;2.50;;
60372;SDS011;46216;52.220;5.134;2022-10-16T03:02:02;5.10;;;2.78;;
60372;SDS011;46216;52.220;5.134;2022-10-16T03:04:28;4.25;;;2.65;;
60372;SDS011;46216;52.220;5.134;2022-10-16T03:06:53;4.13;;;2.47;;
60372;SDS011;46216;52.220;5.134;2022-10-16T03:09:18;4.80;;;2.60;;
60372;SDS011;46216;52.220;5.134;2022-10-16T03:11:44;5.20;;;2.60;;
60372;SDS011;46216;52.220;5.134;2022-10-16T03:14:09;4.00;;;2.67;;
60372;SDS011;46216;52.220;5.134;2022-10-16T03:16:34;5.30;;;2.42;;
60372;SDS011;46216;52.220;5.134;2022-10-16T03:19:00;3.72;;;2.40;;
60372;SDS011;46216;52.220;5.134;2022-10-16T03:21:25;5.47;;;2.58;;
60372;SDS011;46216;52.220;5.134;2022-10-16T03:23:50;4.20;;;2.20;;
60372;SDS011;46216;52.220;5.134;2022-10-16T03:26:16;6.57;;;2.35;;
60372;SDS011;46216;52.220;5.134;2022-10-16T03:28:41;4.00;;;2.33;;
60372;SDS011;46216;52.220;5.134;2022-10-16T03:31:06;4.97;;;2.72;;
60372;SDS011;46216;52.220;5.134;2022-10-16T03:33:32;3.03;;;2.25;;
60372;SDS011;46216;52.220;5.134;2022-10-16T03:35:57;3.63;;;2.40;;
60372;SDS011;46216;52.220;5.134;2022-10-16T03:38:23;4.38;;;2.38;;
60372;SDS011;46216;52.220;5.134;2022-10-16T03:40:48;4.80;;;2.47;;
60372;SDS011;46216;52.220;5.134;2022-10-16T03:43:14;3.30;;;2.40;;
60372;SDS011;46216;52.220;5.134;2022-10-16T03:45:39;5.20;;;2.40;;
60372;SDS011;46216;52.220;5.134;2022-10-16T03:48:05;6.55;;;2.78;;
60372;SDS011;46216;52.220;5.134;2022-10-16T03:50:30;3.85;;;2.25;;
60372;SDS011;46216;52.220;5.134;2022-10-16T03:52:56;5.20;;;2.33;;
60372;SDS011;46216;52.220;5.134;2022-10-16T03:55:21;4.32;;;2.40;;
60372;SDS011;46216;52.220;5.134;2022-10-16T03:57:46;4.13;;;2.38;;
60372;SDS011;46216;52.220;5.134;2022-10-16T04:00:12;3.63;;;2.30;;
60372;SDS011;46216;52.220;5.134;2022-10-16T04:02:38;5.07;;;2.08;;
60372;SDS011;46216;52.220;5.134;2022-10-16T04:05:03;3.40;;;2.20;;
60372;SDS011;46216;52.220;5.134;2022-10-16T04:07:29;3.83;;;2.20;;
60372;SDS011;46216;52.220;5.134;2022-10-16T04:09:54;3.78;;;2.28;;
60372;SDS011;46216;52.220;5.134;2022-10-16T04:12:20;3.85;;;2.08;;
60372;SDS011;46216;52.220;5.134;2022-10-16T04:14:46;4.53;;;2.20;;
60372;SDS011;46216;52.220;5.134;2022-10-16T04:17:11;4.13;;;2.10;;
60372;SDS011;46216;52.220;5.134;2022-10-16T04:19:36;5.43;;;2.08;;
60372;SDS011;46216;52.220;5.134;2022-10-16T04:22:02;5.93;;;2.35;;
60372;SDS011;46216;52.220;5.134;2022-10-16T04:24:27;4.35;;;2.28;;
60372;SDS011;46216;52.220;5.134;2022-10-16T04:26:52;2.85;;;2.13;;
60372;SDS011;46216;52.220;5.134;2022-10-16T04:29:18;3.83;;;2.03;;
60372;SDS011;46216;52.220;5.134;2022-10-16T04:31:43;4.35;;;2.00;;
60372;SDS011;46216;52.220;5.134;2022-10-16T04:34:08;5.30;;;2.10;;
60372;SDS011;46216;52.220;5.134;2022-10-16T04:36:34;3.35;;;1.98;;
60372;SDS011;46216;52.220;5.134;2022-10-16T04:38:59;5.03;;;2.38;;
60372;SDS011;46216;52.220;5.134;2022-10-16T04:41:24;3.28;;;2.05;;
60372;SDS011;46216;52.220;5.134;2022-10-16T04:43:50;3.17;;;1.98;;
60372;SDS011;46216;52.220;5.134;2022-10-16T04:46:15;4.03;;;2.17;;
60372;SDS011;46216;52.220;5.134;2022-10-16T04:48:40;3.25;;;2.17;;
60372;SDS011;46216;52.220;5.134;2022-10-16T04:51:06;3.75;;;1.95;;
60372;SDS011;46216;52.220;5.134;2022-10-16T04:53:31;3.97;;;2.22;;
60372;SDS011;46216;52.220;5.134;2022-10-16T04:55:56;4.13;;;2.00;;
60372;SDS011;46216;52.220;5.134;2022-10-16T04:58:22;3.13;;;1.90;;
60372;SDS011;46216;52.220;5.134;2022-10-16T05:00:48;5.68;;;2.20;;
60372;SDS011;46216;52.220;5.134;2022-10-16T05:03:13;4.80;;;2.00;;
60372;SDS011;46216;52.220;5.134;2022-10-16T05:05:42;4.88;;;2.30;;
60372;SDS011;46216;52.220;5.134;2022-10-16T05:08:10;5.97;;;2.10;;
60372;SDS011;46216;52.220;5.134;2022-10-16T05:10:37;3.55;;;2.08;;
60372;SDS011;46216;52.220;5.134;2022-10-16T05:13:02;3.97;;;2.33;;
60372;SDS011;46216;52.220;5.134;2022-10-16T05:15:28;3.58;;;2.05;;
60372;SDS011;46216;52.220;5.134;2022-10-16T05:17:54;3.28;;;2.28;;
60372;SDS011;46216;52.220;5.134;2022-10-16T05:20:20;3.70;;;2.20;;
60372;SDS011;46216;52.220;5.134;2022-10-16T05:22:45;7.07;;;2.60;;
60372;SDS011;46216;52.220;5.134;2022-10-16T05:25:10;6.05;;;2.90;;
60372;SDS011;46216;52.220;5.134;2022-10-16T05:27:36;3.97;;;2.40;;
60372;SDS011;46216;52.220;5.134;2022-10-16T05:30:02;4.78;;;2.17;;
60372;SDS011;46216;52.220;5.134;2022-10-16T05:32:27;6.30;;;2.33;;
60372;SDS011;46216;52.220;5.134;2022-10-16T05:34:53;4.50;;;2.38;;
60372;SDS011;46216;52.220;5.134;2022-10-16T05:37:18;3.65;;;2.40;;
60372;SDS011;46216;52.220;5.134;2022-10-16T05:39:44;4.00;;;2.10;;
60372;SDS011;46216;52.220;5.134;2022-10-16T05:42:09;5.30;;;2.20;;
60372;SDS011;46216;52.220;5.134;2022-10-16T05:44:34;3.75;;;2.15;;
60372;SDS011;46216;52.220;5.134;2022-10-16T05:47:00;6.88;;;2.30;;
60372;SDS011;46216;52.220;5.134;2022-10-16T05:49:25;3.15;;;2.50;;
60372;SDS011;46216;52.220;5.134;2022-10-16T05:51:50;6.15;;;2.20;;
60372;SDS011;46216;52.220;5.134;2022-10-16T05:54:16;3.72;;;2.35;;
60372;SDS011;46216;52.220;5.134;2022-10-16T05:56:41;4.00;;;2.40;;
60372;SDS011;46216;52.220;5.134;2022-10-16T05:59:07;5.57;;;2.67;;
60372;SDS011;46216;52.220;5.134;2022-10-16T06:01:32;5.10;;;2.70;;
60372;SDS011;46216;52.220;5.134;2022-10-16T06:03:58;3.72;;;2.40;;
60372;SDS011;46216;52.220;5.134;2022-10-16T06:06:24;4.28;;;2.63;;
60372;SDS011;46216;52.220;5.134;2022-10-16T06:08:51;5.57;;;3.00;;
60372;SDS011;46216;52.220;5.134;2022-10-16T06:11:19;5.35;;;2.78;;
60372;SDS011;46216;52.220;5.134;2022-10-16T06:13:54;4.63;;;2.85;;
60372;SDS011;46216;52.220;5.134;2022-10-16T06:16:21;5.82;;;3.40;;
60372;SDS011;46216;52.220;5.134;2022-10-16T06:18:47;4.95;;;3.22;;
60372;SDS011;46216;52.220;5.134;2022-10-16T06:21:18;6.22;;;3.42;;
60372;SDS011;46216;52.220;5.134;2022-10-16T06:23:45;4.80;;;3.40;;
60372;SDS011;46216;52.220;5.134;2022-10-16T06:26:13;4.53;;;3.53;;
60372;SDS011;46216;52.220;5.134;2022-10-16T06:28:40;7.55;;;3.40;;
60372;SDS011;46216;52.220;5.134;2022-10-16T06:31:06;6.57;;;3.60;;
60372;SDS011;46216;52.220;5.134;2022-10-16T06:33:33;7.32;;;3.55;;
60372;SDS011;46216;52.220;5.134;2022-10-16T06:36:12;5.05;;;3.50;;
60372;SDS011;46216;52.220;5.134;2022-10-16T06:38:39;6.13;;;3.55;;
60372;SDS011;46216;52.220;5.134;2022-10-16T06:41:05;7.10;;;3.70;;
60372;SDS011;46216;52.220;5.134;2022-10-16T06:43:32;6.88;;;4.07;;
60372;SDS011;46216;52.220;5.134;2022-10-16T06:46:00;6.25;;;4.07;;
60372;SDS011;46216;52.220;5.134;2022-10-16T06:48:26;8.07;;;4.40;;
60372;SDS011;46216;52.220;5.134;2022-10-16T06:53:26;6.63;;;4.05;;
60372;SDS011;46216;52.220;5.134;2022-10-16T06:55:53;6.00;;;4.10;;
60372;SDS011;46216;52.220;5.134;2022-10-16T06:58:19;5.40;;;3.78;;
60372;SDS011;46216;52.220;5.134;2022-10-16T07:00:46;6.40;;;4.07;;
60372;SDS011;46216;52.220;5.134;2022-10-16T07:03:12;7.13;;;3.25;;
60372;SDS011;46216;52.220;5.134;2022-10-16T07:05:38;8.35;;;3.47;;
60372;SDS011;46216;52.220;5.134;2022-10-16T07:08:04;7.97;;;3.00;;
60372;SDS011;46216;52.220;5.134;2022-10-16T07:10:30;8.07;;;3.10;;
60372;SDS011;46216;52.220;5.134;2022-10-16T07:12:56;6.65;;;3.00;;
60372;SDS011;46216;52.220;5.134;2022-10-16T07:15:21;6.68;;;2.78;;
60372;SDS011;46216;52.220;5.134;2022-10-16T07:17:46;7.40;;;2.85;;
60372;SDS011;46216;52.220;5.134;2022-10-16T07:20:12;7.50;;;2.88;;
60372;SDS011;46216;52.220;5.134;2022-10-16T07:22:37;5.75;;;2.40;;
60372;SDS011;46216;52.220;5.134;2022-10-16T07:25:03;4.20;;;2.28;;
60372;SDS011;46216;52.220;5.134;2022-10-16T07:27:28;6.53;;;2.42;;
60372;SDS011;46216;52.220;5.134;2022-10-16T07:29:54;4.57;;;2.05;;
60372;SDS011;46216;52.220;5.134;2022-10-16T07:32:19;5.88;;;2.30;;
60372;SDS011;46216;52.220;5.134;2022-10-16T07:34:44;6.03;;;1.95;;
60372;SDS011;46216;52.220;5.134;2022-10-16T07:37:10;5.10;;;2.00;;
60372;SDS011;46216;52.220;5.134;2022-10-16T07:39:36;5.18;;;2.08;;
60372;SDS011;46216;52.220;5.134;2022-10-16T07:42:01;4.00;;;1.88;;
60372;SDS011;46216;52.220;5.134;2022-10-16T07:44:27;5.57;;;1.98;;
60372;SDS011;46216;52.220;5.134;2022-10-16T07:46:52;9.98;;;2.28;;
60372;SDS011;46216;52.220;5.134;2022-10-16T07:49:17;4.45;;;2.08;;
60372;SDS011;46216;52.220;5.134;2022-10-16T07:51:43;7.45;;;2.15;;
60372;SDS011;46216;52.220;5.134;2022-10-16T07:54:09;7.43;;;2.10;;
60372;SDS011;46216;52.220;5.134;2022-10-16T07:56:35;6.82;;;2.00;;
60372;SDS011;46216;52.220;5.134;2022-10-16T07:59:00;5.43;;;1.98;;
60372;SDS011;46216;52.220;5.134;2022-10-16T08:01:25;6.30;;;2.10;;
60372;SDS011;46216;52.220;5.134;2022-10-16T08:03:51;3.45;;;1.90;;
60372;SDS011;46216;52.220;5.134;2022-10-16T08:06:18;6.80;;;2.33;;
60372;SDS011;46216;52.220;5.134;2022-10-16T08:08:44;4.00;;;2.15;;
60372;SDS011;46216;52.220;5.134;2022-10-16T08:11:09;5.93;;;2.72;;
60372;SDS011;46216;52.220;5.134;2022-10-16T08:13:35;6.97;;;2.83;;
60372;SDS011;46216;52.220;5.134;2022-10-16T08:16:01;4.57;;;2.40;;
60372;SDS011;46216;52.220;5.134;2022-10-16T08:18:26;5.38;;;2.67;;
60372;SDS011;46216;52.220;5.134;2022-10-16T08:20:55;8.82;;;3.10;;
60372;SDS011;46216;52.220;5.134;2022-10-16T08:23:25;7.07;;;2.95;;
60372;SDS011;46216;52.220;5.134;2022-10-16T08:25:52;7.25;;;3.17;;
60372;SDS011;46216;52.220;5.134;2022-10-16T08:28:18;4.35;;;2.78;;
60372;SDS011;46216;52.220;5.134;2022-10-16T08:30:44;6.20;;;2.60;;
60372;SDS011;46216;52.220;5.134;2022-10-16T08:33:09;5.32;;;2.90;;
60372;SDS011;46216;52.220;5.134;2022-10-16T08:35:34;8.77;;;3.20;;
60372;SDS011;46216;52.220;5.134;2022-10-16T08:38:02;6.95;;;3.28;;
60372;SDS011;46216;52.220;5.134;2022-10-16T08:40:29;7.65;;;3.13;;
60372;SDS011;46216;52.220;5.134;2022-10-16T08:50:56;8.48;;;2.78;;
60372;SDS011;46216;52.220;5.134;2022-10-16T08:53:29;10.10;;;2.63;;
60372;SDS011;46216;52.220;5.134;2022-10-16T08:55:58;8.40;;;2.60;;
60372;SDS011;46216;52.220;5.134;2022-10-16T08:58:28;5.43;;;2.22;;
60372;SDS011;46216;52.220;5.134;2022-10-16T09:00:56;6.85;;;2.65;;
60372;SDS011;46216;52.220;5.134;2022-10-16T09:03:25;5.90;;;2.40;;
60372;SDS011;46216;52.220;5.134;2022-10-16T09:06:07;11.77;;;2.67;;
60372;SDS011;46216;52.220;5.134;2022-10-16T09:17:04;5.28;;;2.20;;
60372;SDS011;46216;52.220;5.134;2022-10-16T09:19:50;7.75;;;2.05;;
60372;SDS011;46216;52.220;5.134;2022-10-16T09:22:18;10.77;;;2.35;;
60372;SDS011;46216;52.220;5.134;2022-10-16T09:24:50;8.27;;;2.20;;
60372;SDS011;46216;52.220;5.134;2022-10-16T09:27:15;7.18;;;2.33;;
60372;SDS011;46216;52.220;5.134;2022-10-16T09:29:41;9.93;;;2.42;;
60372;SDS011;46216;52.220;5.134;2022-10-16T09:32:08;8.00;;;2.30;;
60372;SDS011;46216;52.220;5.134;2022-10-16T09:34:40;8.25;;;2.40;;
60372;SDS011;46216;52.220;5.134;2022-10-16T09:37:09;8.82;;;2.05;;
60372;SDS011;46216;52.220;5.134;2022-10-16T09:40:11;7.45;;;2.40;;
60372;SDS011;46216;52.220;5.134;2022-10-16T09:42:31;8.60;;;2.28;;
60372;SDS011;46216;52.220;5.134;2022-10-16T09:44:59;8.63;;;2.30;;
60372;SDS011;46216;52.220;5.134;2022-10-16T09:47:28;7.90;;;2.40;;
60372;SDS011;46216;52.220;5.134;2022-10-16T09:49:56;6.05;;;2.13;;
60372;SDS011;46216;52.220;5.134;2022-10-16T09:52:24;9.73;;;2.60;;
60372;SDS011;46216;52.220;5.134;2022-10-16T09:57:20;9.10;;;2.17;;
60372;SDS011;46216;52.220;5.134;2022-10-16T09:59:47;9.20;;;2.20;;
60372;SDS011;46216;52.220;5.134;2022-10-16T10:02:14;11.50;;;2.10;;
60372;SDS011;46216;52.220;5.134;2022-10-16T10:04:44;9.23;;;2.50;;
60372;SDS011;46216;52.220;5.134;2022-10-16T10:07:18;7.55;;;2.20;;
60372;SDS011;46216;52.220;5.134;2022-10-16T10:09:49;10.52;;;1.90;;
60372;SDS011;46216;52.220;5.134;2022-10-16T10:12:17;9.95;;;2.38;;
60372;SDS011;46216;52.220;5.134;2022-10-16T10:14:48;8.48;;;1.95;;
60372;SDS011;46216;52.220;5.134;2022-10-16T10:17:21;8.57;;;2.03;;
60372;SDS011;46216;52.220;5.134;2022-10-16T10:22:29;7.93;;;2.45;;
60372;SDS011;46216;52.220;5.134;2022-10-16T10:27:39;10.23;;;2.15;;
60372;SDS011;46216;52.220;5.134;2022-10-16T10:35:37;8.77;;;2.22;;
60372;SDS011;46216;52.220;5.134;2022-10-16T10:38:06;11.73;;;2.50;;
60372;SDS011;46216;52.220;5.134;2022-10-16T10:40:52;9.43;;;2.22;;
60372;SDS011;46216;52.220;5.134;2022-10-16T10:52:02;8.98;;;2.20;;
60372;SDS011;46216;52.220;5.134;2022-10-16T10:54:45;10.77;;;2.58;;
60372;SDS011;46216;52.220;5.134;2022-10-16T10:59:58;9.23;;;2.40;;
60372;SDS011;46216;52.220;5.134;2022-10-16T11:02:45;9.75;;;2.10;;
60372;SDS011;46216;52.220;5.134;2022-10-16T11:08:32;7.35;;;2.10;;
60372;SDS011;46216;52.220;5.134;2022-10-16T11:11:03;8.35;;;2.05;;
60372;SDS011;46216;52.220;5.134;2022-10-16T11:16:23;10.10;;;2.20;;
60372;SDS011;46216;52.220;5.134;2022-10-16T11:18:58;9.70;;;2.22;;
60372;SDS011;46216;52.220;5.134;2022-10-16T11:21:36;8.73;;;2.25;;
60372;SDS011;46216;52.220;5.134;2022-10-16T11:24:16;8.88;;;1.92;;
60372;SDS011;46216;52.220;5.134;2022-10-16T11:26:49;10.35;;;2.10;;
60372;SDS011;46216;52.220;5.134;2022-10-16T11:29:29;5.57;;;2.05;;
60372;SDS011;46216;52.220;5.134;2022-10-16T11:31:57;9.10;;;2.10;;
60372;SDS011;46216;52.220;5.134;2022-10-16T11:34:32;8.48;;;1.90;;
60372;SDS011;46216;52.220;5.134;2022-10-16T11:37:14;8.63;;;2.17;;
60372;SDS011;46216;52.220;5.134;2022-10-16T11:39:45;7.40;;;1.75;;
60372;SDS011;46216;52.220;5.134;2022-10-16T11:42:19;9.85;;;2.38;;
60372;SDS011;46216;52.220;5.134;2022-10-16T11:47:43;10.43;;;2.03;;
60372;SDS011;46216;52.220;5.134;2022-10-16T11:50:28;5.68;;;1.95;;
60372;SDS011;46216;52.220;5.134;2022-10-16T11:55:52;5.97;;;1.60;;
60372;SDS011;46216;52.220;5.134;2022-10-16T12:01:00;8.95;;;1.70;;
60372;SDS011;46216;52.220;5.134;2022-10-16T12:08:54;7.03;;;1.63;;
60372;SDS011;46216;52.220;5.134;2022-10-16T12:16:30;7.78;;;1.88;;
60372;SDS011;46216;52.220;5.134;2022-10-16T12:19:15;7.60;;;1.80;;
60372;SDS011;46216;52.220;5.134;2022-10-16T12:21:42;12.07;;;2.05;;
60372;SDS011;46216;52.220;5.134;2022-10-16T12:26:55;12.02;;;2.38;;
60372;SDS011;46216;52.220;5.134;2022-10-16T12:29:30;9.05;;;1.95;;
60372;SDS011;46216;52.220;5.134;2022-10-16T12:31:59;8.13;;;1.77;;
60372;SDS011;46216;52.220;5.134;2022-10-16T12:34:27;9.00;;;2.00;;
60372;SDS011;46216;52.220;5.134;2022-10-16T12:37:08;9.00;;;1.75;;
60372;SDS011;46216;52.220;5.134;2022-10-16T12:39:39;9.45;;;1.67;;
60372;SDS011;46216;52.220;5.134;2022-10-16T12:42:19;5.18;;;1.73;;
60372;SDS011;46216;52.220;5.134;2022-10-16T12:44:46;5.47;;;1.50;;
60372;SDS011;46216;52.220;5.134;2022-10-16T12:47:23;10.82;;;2.05;;
60372;SDS011;46216;52.220;5.134;2022-10-16T12:49:57;6.72;;;1.58;;
60372;SDS011;46216;52.220;5.134;2022-10-16T12:52:25;8.15;;;1.70;;
60372;SDS011;46216;52.220;5.134;2022-10-16T12:54:55;7.97;;;1.95;;
60372;SDS011;46216;52.220;5.134;2022-10-16T13:08:47;9.80;;;1.80;;
60372;SDS011;46216;52.220;5.134;2022-10-16T13:16:48;7.47;;;1.70;;
60372;SDS011;46216;52.220;5.134;2022-10-16T13:30:11;11.20;;;1.92;;
60372;SDS011;46216;52.220;5.134;2022-10-16T13:32:40;8.63;;;2.05;;
60372;SDS011;46216;52.220;5.134;2022-10-16T13:35:20;6.78;;;1.65;;
60372;SDS011;46216;52.220;5.134;2022-10-16T13:37:48;14.88;;;2.08;;
60372;SDS011;46216;52.220;5.134;2022-10-16T13:40:23;6.05;;;1.80;;
60372;SDS011;46216;52.220;5.134;2022-10-16T13:42:50;11.05;;;1.85;;
60372;SDS011;46216;52.220;5.134;2022-10-16T13:45:21;7.55;;;1.83;;
60372;SDS011;46216;52.220;5.134;2022-10-16T13:47:48;7.78;;;1.73;;
60372;SDS011;46216;52.220;5.134;2022-10-16T13:50:18;7.97;;;2.25;;
60372;SDS011;46216;52.220;5.134;2022-10-16T13:52:44;8.52;;;1.85;;
60372;SDS011;46216;52.220;5.134;2022-10-16T13:55:10;7.82;;;2.10;;
60372;SDS011;46216;52.220;5.134;2022-10-16T13:57:36;7.30;;;1.90;;
60372;SDS011;46216;52.220;5.134;2022-10-16T14:00:01;9.95;;;2.08;;
60372;SDS011;46216;52.220;5.134;2022-10-16T14:02:28;6.75;;;1.83;;
60372;SDS011;46216;52.220;5.134;2022-10-16T14:05:00;9.25;;;2.10;;
60372;SDS011;46216;52.220;5.134;2022-10-16T14:07:28;9.57;;;2.17;;
60372;SDS011;46216;52.220;5.134;2022-10-16T14:09:56;5.80;;;1.60;;
60372;SDS011;46216;52.220;5.134;2022-10-16T14:12:30;8.27;;;1.73;;
60372;SDS011;46216;52.220;5.134;2022-10-16T14:14:56;7.82;;;1.77;;
60372;SDS011;46216;52.220;5.134;2022-10-16T14:17:33;10.73;;;1.88;;
60372;SDS011;46216;52.220;5.134;2022-10-16T14:20:00;11.65;;;2.47;;
60372;SDS011;46216;52.220;5.134;2022-10-16T14:22:35;8.32;;;2.22;;
60372;SDS011;46216;52.220;5.134;2022-10-16T14:25:18;10.93;;;2.10;;
60372;SDS011;46216;52.220;5.134;2022-10-16T14:27:55;8.90;;;1.90;;
60372;SDS011;46216;52.220;5.134;2022-10-16T14:30:23;8.65;;;2.00;;
60372;SDS011;46216;52.220;5.134;2022-10-16T14:35:34;9.77;;;2.03;;
60372;SDS011;46216;52.220;5.134;2022-10-16T14:38:02;10.75;;;1.75;;
60372;SDS011;46216;52.220;5.134;2022-10-16T14:40:31;8.52;;;1.88;;
60372;SDS011;46216;52.220;5.134;2022-10-16T14:42:59;6.88;;;1.70;;
60372;SDS011;46216;52.220;5.134;2022-10-16T14:45:30;7.32;;;1.80;;
60372;SDS011;46216;52.220;5.134;2022-10-16T14:47:58;7.63;;;2.08;;
60372;SDS011;46216;52.220;5.134;2022-10-16T14:50:26;10.63;;;1.95;;
60372;SDS011;46216;52.220;5.134;2022-10-16T14:52:51;9.63;;;2.00;;
60372;SDS011;46216;52.220;5.134;2022-10-16T14:55:17;11.70;;;2.10;;
60372;SDS011;46216;52.220;5.134;2022-10-16T14:57:43;8.15;;;1.75;;
60372;SDS011;46216;52.220;5.134;2022-10-16T15:00:20;9.02;;;2.25;;
60372;SDS011;46216;52.220;5.134;2022-10-16T15:02:48;9.77;;;1.95;;
60372;SDS011;46216;52.220;5.134;2022-10-16T15:07:42;7.20;;;2.00;;
60372;SDS011;46216;52.220;5.134;2022-10-16T15:10:08;9.73;;;2.00;;
60372;SDS011;46216;52.220;5.134;2022-10-16T15:12:34;7.90;;;1.70;;
60372;SDS011;46216;52.220;5.134;2022-10-16T15:15:00;8.98;;;2.00;;
60372;SDS011;46216;52.220;5.134;2022-10-16T15:17:25;9.02;;;1.83;;
60372;SDS011;46216;52.220;5.134;2022-10-16T15:19:51;8.13;;;2.05;;
60372;SDS011;46216;52.220;5.134;2022-10-16T15:22:16;9.32;;;2.40;;
60372;SDS011;46216;52.220;5.134;2022-10-16T15:24:42;8.68;;;1.92;;
60372;SDS011;46216;52.220;5.134;2022-10-16T15:27:07;10.80;;;1.85;;
60372;SDS011;46216;52.220;5.134;2022-10-16T15:29:33;8.27;;;1.70;;
60372;SDS011;46216;52.220;5.134;2022-10-16T15:31:58;12.38;;;2.15;;
60372;SDS011;46216;52.220;5.134;2022-10-16T15:34:23;8.98;;;1.90;;
60372;SDS011;46216;52.220;5.134;2022-10-16T15:36:49;8.13;;;2.00;;
60372;SDS011;46216;52.220;5.134;2022-10-16T15:39:15;9.77;;;2.17;;
60372;SDS011;46216;52.220;5.134;2022-10-16T15:41:41;9.65;;;2.38;;
60372;SDS011;46216;52.220;5.134;2022-10-16T15:44:08;9.40;;;2.40;;
60372;SDS011;46216;52.220;5.134;2022-10-16T15:46:33;11.52;;;2.80;;
60372;SDS011;46216;52.220;5.134;2022-10-16T15:49:00;12.25;;;2.95;;
60372;SDS011;46216;52.220;5.134;2022-10-16T15:51:26;15.60;;;5.32;;
60372;SDS011;46216;52.220;5.134;2022-10-16T15:53:57;12.23;;;4.28;;
60372;SDS011;46216;52.220;5.134;2022-10-16T15:56:24;15.68;;;6.45;;
60372;SDS011;46216;52.220;5.134;2022-10-16T15:58:51;15.00;;;4.38;;
60372;SDS011;46216;52.220;5.134;2022-10-16T16:01:16;12.55;;;3.70;;
60372;SDS011;46216;52.220;5.134;2022-10-16T16:03:42;14.02;;;3.55;;
60372;SDS011;46216;52.220;5.134;2022-10-16T16:06:08;16.17;;;5.78;;
60372;SDS011;46216;52.220;5.134;2022-10-16T16:08:35;17.05;;;7.80;;
60372;SDS011;46216;52.220;5.134;2022-10-16T16:11:02;14.98;;;7.75;;
60372;SDS011;46216;52.220;5.134;2022-10-16T16:13:29;14.18;;;6.72;;
60372;SDS011;46216;52.220;5.134;2022-10-16T16:15:55;13.15;;;5.28;;
60372;SDS011;46216;52.220;5.134;2022-10-16T16:18:20;12.68;;;5.25;;
60372;SDS011;46216;52.220;5.134;2022-10-16T16:20:45;14.25;;;4.20;;
60372;SDS011;46216;52.220;5.134;2022-10-16T16:23:11;11.02;;;2.92;;
60372;SDS011;46216;52.220;5.134;2022-10-16T16:25:36;10.60;;;2.88;;
60372;SDS011;46216;52.220;5.134;2022-10-16T16:28:01;11.35;;;3.35;;
60372;SDS011;46216;52.220;5.134;2022-10-16T16:30:27;13.07;;;2.63;;
60372;SDS011;46216;52.220;5.134;2022-10-16T16:32:52;11.98;;;2.88;;
60372;SDS011;46216;52.220;5.134;2022-10-16T16:35:17;13.82;;;2.50;;
60372;SDS011;46216;52.220;5.134;2022-10-16T16:37:43;11.85;;;2.25;;
60372;SDS011;46216;52.220;5.134;2022-10-16T16:40:08;8.05;;;2.20;;
60372;SDS011;46216;52.220;5.134;2022-10-16T16:42:33;6.85;;;1.88;;
60372;SDS011;46216;52.220;5.134;2022-10-16T16:44:59;8.93;;;2.30;;
60372;SDS011;46216;52.220;5.134;2022-10-16T16:47:24;9.30;;;2.85;;
60372;SDS011;46216;52.220;5.134;2022-10-16T16:49:49;10.85;;;3.45;;
60372;SDS011;46216;52.220;5.134;2022-10-16T16:52:15;11.80;;;3.33;;
60372;SDS011;46216;52.220;5.134;2022-10-16T16:54:41;10.75;;;3.08;;